createdAt,value
2023-02-24T00:01:18.829Z,97.00
2023-02-24T00:06:21.972Z,97.10
2023-02-24T00:11:24.891Z,97.50
2023-02-24T00:16:28.280Z,97.40
2023-02-24T00:21:31.757Z,97.60
2023-02-24T00:26:34.914Z,97.80
2023-02-24T00:31:42.048Z,97.90
2023-02-24T00:36:45.201Z,97.90
2023-02-24T00:41:47.979Z,97.90
2023-02-24T00:46:51.596Z,98.00
2023-02-24T00:51:55.256Z,98.10
2023-02-24T00:56:58.245Z,98.40
2023-02-24T01:02:03.674Z,98.70
2023-02-24T01:07:11.103Z,98.90
2023-02-24T01:12:32.739Z,99.10
2023-02-24T01:17:37.860Z,99.20
2023-02-24T01:22:40.978Z,99.40
2023-02-24T01:27:43.960Z,99.60
2023-02-24T01:32:47.748Z,99.70
2023-02-24T01:37:50.963Z,99.70
2023-02-24T01:42:53.932Z,99.80
2023-02-24T01:48:03.169Z,99.80
2023-02-24T01:53:08.502Z,99.80
2023-02-24T01:58:21.026Z,99.80
2023-02-24T02:03:42.126Z,99.80
2023-02-24T02:08:45.842Z,99.90
2023-02-24T02:13:51.194Z,99.90
2023-02-24T02:19:35.216Z,99.90
2023-02-24T02:24:52.820Z,99.90
2023-02-24T02:30:34.753Z,99.90
2023-02-24T02:35:46.498Z,99.90
2023-02-24T02:41:02.425Z,99.90
2023-02-24T02:46:15.854Z,99.90
2023-02-24T02:51:28.152Z,99.90
2023-02-24T02:56:42.611Z,99.90
2023-02-24T03:01:47.300Z,99.90
2023-02-24T03:06:57.243Z,99.90
2023-02-24T03:12:08.384Z,99.90
2023-02-24T03:17:21.540Z,99.90
2023-02-24T03:22:35.074Z,99.90
2023-02-24T03:27:53.580Z,99.90
2023-02-24T03:33:01.840Z,99.90
2023-02-24T03:38:06.485Z,99.90
2023-02-24T03:43:31.233Z,99.90
2023-02-24T03:48:40.249Z,99.90
2023-02-24T03:54:30.887Z,99.90
2023-02-24T03:59:56.335Z,99.90
2023-02-24T04:05:09.754Z,99.90
2023-02-24T04:10:31.484Z,99.90
2023-02-24T04:15:44.110Z,99.90
2023-02-24T04:20:53.342Z,99.90
2023-02-24T04:25:56.450Z,99.90
2023-02-24T04:31:06.206Z,99.90
2023-02-24T04:36:12.921Z,99.90
2023-02-24T04:41:21.508Z,99.90
2023-02-24T04:46:25.091Z,99.90
2023-02-24T04:51:31.873Z,99.90
2023-02-24T04:56:36.205Z,99.90
2023-02-24T05:01:42.383Z,99.90
2023-02-24T05:06:46.568Z,99.90
2023-02-24T05:11:52.574Z,99.90
2023-02-24T05:17:00.418Z,99.90
2023-02-24T05:22:04.815Z,99.90
2023-02-24T05:27:08.058Z,99.90
2023-02-24T05:32:11.123Z,99.90
2023-02-24T05:37:16.874Z,99.90
2023-02-24T05:42:20.079Z,99.90
2023-02-24T05:47:25.101Z,99.90
2023-02-24T05:52:28.049Z,99.90
2023-02-24T05:57:35.480Z,99.90
2023-02-24T06:02:38.565Z,99.90
2023-02-24T06:07:43.230Z,99.90
2023-02-24T06:12:46.422Z,99.90
2023-02-24T06:17:49.747Z,99.90
2023-02-24T06:22:58.275Z,99.90
2023-02-24T06:28:01.962Z,99.90
2023-02-24T06:33:06.067Z,99.90
2023-02-24T06:38:09.351Z,99.90
2023-02-24T06:43:12.344Z,99.90
2023-02-24T06:48:15.346Z,99.90
2023-02-24T06:53:19.051Z,99.90
2023-02-24T06:58:24.353Z,99.90
2023-02-24T07:03:50.297Z,99.90
2023-02-24T07:08:53.586Z,99.90
2023-02-24T07:13:57.635Z,99.90
2023-02-24T07:19:03.947Z,99.90
2023-02-24T07:24:25.174Z,99.90
2023-02-24T07:29:32.465Z,99.90
2023-02-24T07:34:40.089Z,99.90
2023-02-24T07:39:43.417Z,99.90
2023-02-24T07:44:51.775Z,99.90
2023-02-24T07:49:55.580Z,99.90
2023-02-24T07:54:58.693Z,99.90
2023-02-24T08:00:13.134Z,99.90
2023-02-24T08:05:21.915Z,99.90
2023-02-24T08:10:24.976Z,99.90
2023-02-24T08:15:34.105Z,99.90
2023-02-24T08:20:52.200Z,99.90
2023-02-24T08:25:55.538Z,99.90
2023-02-24T08:30:59.137Z,99.90
2023-02-24T08:36:02.756Z,99.90
2023-02-24T08:41:21.486Z,99.90
2023-02-24T08:46:33.021Z,99.90
2023-02-24T08:51:46.336Z,99.10
2023-02-24T08:56:50.048Z,98.50
2023-02-24T09:02:10.812Z,97.30
2023-02-24T09:07:24.257Z,96.20
2023-02-24T09:12:29.864Z,95.90
2023-02-24T09:17:45.627Z,94.40
2023-02-24T09:22:58.105Z,93.40
2023-02-24T09:28:29.291Z,92.50
2023-02-24T09:33:39.855Z,90.60
2023-02-24T09:38:59.560Z,90.30
2023-02-24T09:44:20.025Z,89.50
2023-02-24T09:49:40.233Z,88.90
2023-02-24T09:55:15.679Z,87.30
2023-02-24T10:00:25.845Z,87.10
2023-02-24T10:05:49.457Z,86.80
2023-02-24T10:11:09.437Z,87.20
2023-02-24T10:16:37.107Z,86.70
2023-02-24T10:22:27.651Z,86.90
2023-02-24T10:27:59.428Z,88.20
2023-02-24T10:33:05.457Z,87.30
2023-02-24T10:38:08.706Z,86.50
2023-02-24T10:43:18.782Z,85.50
2023-02-24T10:48:40.187Z,84.70
2023-02-24T10:53:53.077Z,83.70
2023-02-24T10:59:36.247Z,81.90
2023-02-24T11:04:58.638Z,78.80
2023-02-24T11:10:25.876Z,77.70
2023-02-24T11:16:00.355Z,76.30
2023-02-24T11:21:11.095Z,76.80
2023-02-24T11:26:23.489Z,75.70
2023-02-24T11:31:49.178Z,74.50
2023-02-24T11:37:32.438Z,72.40
2023-02-24T11:42:56.321Z,70.00
2023-02-24T11:48:20.120Z,69.20
2023-02-24T11:53:34.469Z,69.00
2023-02-24T11:58:58.371Z,69.90
2023-02-24T12:04:32.647Z,71.30
2023-02-24T12:10:16.058Z,71.60
2023-02-24T12:15:27.383Z,71.00
2023-02-24T12:21:02.146Z,71.00
2023-02-24T12:27:02.657Z,69.50
2023-02-24T12:32:33.270Z,69.60
2023-02-24T12:38:09.468Z,70.20
2023-02-24T12:43:32.475Z,70.20
2023-02-24T12:49:24.093Z,70.30
2023-02-24T12:54:43.612Z,70.50
2023-02-24T12:59:47.439Z,70.70
2023-02-24T13:05:11.110Z,71.20
2023-02-24T13:10:58.224Z,71.50
2023-02-24T13:16:01.320Z,72.00
2023-02-24T13:21:09.745Z,72.60
2023-02-24T13:26:22.151Z,72.30
2023-02-24T13:31:26.471Z,73.20
2023-02-24T13:36:31.849Z,74.20
2023-02-24T13:41:41.189Z,75.20
2023-02-24T13:47:20.509Z,76.00
2023-02-24T13:52:47.596Z,76.20
2023-02-24T13:58:20.461Z,76.70
2023-02-24T14:03:28.180Z,77.30
2023-02-24T14:08:51.005Z,77.70
2023-02-24T14:13:56.558Z,77.90
2023-02-24T14:19:02.420Z,77.70
2023-02-24T14:24:13.610Z,77.40
2023-02-24T14:29:27.313Z,77.20
2023-02-24T14:34:33.988Z,76.00
2023-02-24T14:39:37.379Z,76.10
2023-02-24T14:44:50.973Z,75.80
2023-02-24T14:50:02.408Z,75.80
2023-02-24T14:55:08.792Z,74.80
2023-02-24T15:00:24.770Z,73.90
2023-02-24T15:05:30.897Z,73.30
2023-02-24T15:10:34.140Z,72.80
2023-02-24T15:15:39.299Z,72.60
2023-02-24T15:20:43.191Z,72.80
2023-02-24T15:25:46.729Z,73.40
2023-02-24T15:31:10.883Z,74.20
2023-02-24T15:36:24.276Z,74.80
2023-02-24T15:41:48.292Z,75.70
2023-02-24T15:46:51.503Z,76.00
2023-02-24T15:51:59.860Z,76.40
2023-02-24T15:57:05.380Z,77.10
2023-02-24T16:02:35.058Z,77.80
2023-02-24T16:07:39.742Z,78.20
2023-02-24T16:13:00.238Z,78.60
2023-02-24T16:18:03.956Z,79.70
2023-02-24T16:23:06.704Z,79.80
2023-02-24T16:28:15.733Z,80.10
2023-02-24T16:33:23.939Z,80.50
2023-02-24T16:38:27.230Z,80.40
2023-02-24T16:43:30.237Z,80.40
2023-02-24T16:48:37.473Z,80.40
2023-02-24T16:53:41.272Z,80.30
2023-02-24T16:58:44.211Z,80.30
2023-02-24T17:03:54.004Z,80.40
2023-02-24T17:08:56.976Z,80.70
2023-02-24T17:14:00.185Z,81.10
2023-02-24T17:19:03.190Z,81.50
2023-02-24T17:24:06.595Z,81.80
2023-02-24T17:29:10.540Z,81.80
2023-02-24T17:34:13.439Z,82.00
2023-02-24T17:39:16.525Z,82.20
2023-02-24T17:44:19.280Z,82.40
2023-02-24T17:49:22.188Z,82.40
2023-02-24T17:54:25.199Z,82.30
2023-02-24T17:59:29.269Z,82.50
2023-02-24T18:04:32.308Z,82.60
2023-02-24T18:09:35.727Z,82.70
2023-02-24T18:14:38.726Z,83.10
2023-02-24T18:19:42.041Z,83.30
2023-02-24T18:24:45.041Z,83.40
2023-02-24T18:29:48.103Z,83.30
2023-02-24T18:34:51.096Z,83.40
2023-02-24T18:39:54.123Z,83.60
2023-02-24T18:44:57.194Z,83.50
2023-02-24T18:50:00.223Z,83.60
2023-02-24T18:55:04.042Z,83.70
2023-02-24T19:00:07.981Z,83.70
2023-02-24T19:05:11.209Z,83.70
2023-02-24T19:10:14.165Z,83.90
2023-02-24T19:15:19.654Z,83.90
2023-02-24T19:20:22.825Z,84.00
2023-02-24T19:25:25.703Z,84.10
2023-02-24T19:30:28.654Z,84.30
2023-02-24T19:35:31.650Z,84.80
2023-02-24T19:40:37.935Z,85.20
2023-02-24T19:45:44.343Z,85.50
2023-02-24T19:50:47.381Z,86.00
2023-02-24T19:55:51.133Z,86.90
2023-02-24T20:00:54.194Z,87.50
2023-02-24T20:05:57.216Z,88.30
2023-02-24T20:11:05.739Z,88.50
2023-02-24T20:16:15.754Z,88.80
2023-02-24T20:21:18.687Z,89.30
2023-02-24T20:26:22.003Z,89.50
2023-02-24T20:31:25.006Z,90.00
2023-02-24T20:36:29.619Z,90.10
2023-02-24T20:41:33.572Z,90.40
2023-02-24T20:46:37.526Z,90.50
2023-02-24T20:51:41.127Z,90.80
2023-02-24T20:56:45.726Z,90.80
2023-02-24T21:01:50.442Z,91.00
2023-02-24T21:06:54.399Z,91.10
2023-02-24T21:11:57.700Z,91.20
2023-02-24T21:17:00.629Z,91.20
2023-02-24T21:22:05.407Z,91.40
2023-02-24T21:27:09.586Z,91.60
2023-02-24T21:32:12.669Z,91.60
2023-02-24T21:37:15.935Z,92.10
2023-02-24T21:42:19.155Z,92.20
2023-02-24T21:47:21.902Z,92.30
2023-02-24T21:52:25.154Z,92.50
2023-02-24T21:57:28.627Z,92.50
2023-02-24T22:02:31.515Z,92.60
2023-02-24T22:07:36.921Z,92.80
2023-02-24T22:12:40.758Z,93.10
2023-02-24T22:17:43.519Z,93.00
2023-02-24T22:22:46.408Z,93.20
2023-02-24T22:27:49.414Z,93.40
2023-02-24T22:32:52.502Z,93.40
2023-02-24T22:37:55.587Z,93.50
2023-02-24T22:42:58.828Z,93.60
2023-02-24T22:48:01.827Z,94.10
2023-02-24T22:53:05.965Z,94.10
2023-02-24T22:58:09.446Z,94.30
2023-02-24T23:03:19.919Z,94.60
2023-02-24T23:08:23.759Z,94.80
2023-02-24T23:13:26.788Z,95.50
2023-02-24T23:18:30.962Z,96.10
2023-02-24T23:23:34.832Z,96.60
2023-02-24T23:28:39.105Z,96.80
2023-02-24T23:33:42.023Z,97.00
2023-02-24T23:38:45.698Z,97.80
2023-02-24T23:43:48.984Z,98.10
2023-02-24T23:48:54.509Z,98.50
2023-02-24T23:53:57.461Z,99.00
2023-02-24T23:59:00.553Z,99.50
